Time;durP1;ratioP1;P1;durP2;ratioP2;P2;SDS_P1;SDS_P2;PMS_P1;PMS_P2;Temp;Humidity;BMP_temperature;BMP_pressure;BME280_temperature;BME280_humidity;BME280_pressure;Samples;Min_cycle;Max_cycle;Signal;HPM_P1;HPM_P2
2022/01/13 00:01:48;;;;;;;37.53;22.43;;;3.90;99.90;;;;;;5060514;28;20616;-82
2022/01/13 00:04:16;;;;;;;33.37;20.50;;;3.90;99.90;;;;;;5061870;28;20444;-79
2022/01/13 00:06:44;;;;;;;39.47;22.23;;;4.00;99.90;;;;;;5072966;23;20503;-85
2022/01/13 00:09:12;;;;;;;34.10;22.53;;;4.10;99.90;;;;;;5080404;28;20451;-86
2022/01/13 00:11:39;;;;;;;42.17;23.53;;;4.10;99.90;;;;;;5087267;28;20549;-85
2022/01/13 00:14:38;;;;;;;37.27;21.87;;;4.00;99.90;;;;;;5098295;28;20447;-86
2022/01/13 00:19:56;;;;;;;41.03;24.93;;;4.00;99.90;;;;;;5085106;28;20474;-85
2022/01/13 00:22:40;;;;;;;48.03;22.20;;;4.00;99.90;;;;;;5099599;28;20458;-88
2022/01/13 00:25:11;;;;;;;40.33;21.67;;;3.90;99.90;;;;;;5090642;28;20905;-86
2022/01/13 00:27:41;;;;;;;43.23;22.43;;;3.80;99.90;;;;;;5078612;28;20462;-86
2022/01/13 00:30:15;;;;;;;44.80;24.60;;;3.80;99.90;;;;;;5079611;28;20465;-86
2022/01/13 00:32:42;;;;;;;54.07;26.60;;;3.80;99.90;;;;;;5096843;28;20443;-86
2022/01/13 00:35:10;;;;;;;40.03;23.40;;;3.80;99.90;;;;;;5086351;28;20446;-86
2022/01/13 00:37:40;;;;;;;41.60;20.87;;;3.80;99.90;;;;;;5073646;28;20474;-87
2022/01/13 00:40:09;;;;;;;49.07;24.93;;;3.80;99.90;;;;;;5090351;28;20445;-87
2022/01/13 00:42:36;;;;;;;40.20;21.90;;;3.70;99.90;;;;;;5098959;28;20450;-84
2022/01/13 00:45:03;;;;;;;49.57;23.47;;;3.70;99.90;;;;;;5085407;28;20455;-86
2022/01/13 00:47:31;;;;;;;45.27;23.80;;;3.70;99.90;;;;;;5079179;28;20498;-85
2022/01/13 00:49:58;;;;;;;44.57;24.27;;;3.80;99.90;;;;;;5079614;28;20450;-84
2022/01/13 00:52:25;;;;;;;44.20;22.90;;;3.90;99.90;;;;;;5091873;28;20446;-85
2022/01/13 00:54:53;;;;;;;52.73;26.00;;;3.90;99.90;;;;;;5086902;28;21128;-85
2022/01/13 00:57:20;;;;;;;50.90;24.97;;;3.90;99.90;;;;;;5079361;28;20472;-85
2022/01/13 00:59:47;;;;;;;56.57;25.90;;;3.80;99.90;;;;;;5078388;28;20451;-85
2022/01/13 01:02:14;;;;;;;43.23;24.10;;;3.70;99.90;;;;;;5078617;28;20483;-84
2022/01/13 01:04:41;;;;;;;53.13;25.23;;;3.70;99.90;;;;;;5090806;28;20458;-85
2022/01/13 01:07:08;;;;;;;48.30;24.27;;;3.70;99.90;;;;;;5099059;28;20475;-86
2022/01/13 01:09:39;;;;;;;57.87;30.73;;;3.60;99.90;;;;;;5093328;28;20449;-84
2022/01/13 01:12:10;;;;;;;48.30;25.73;;;3.50;99.90;;;;;;5099067;28;20443;-85
2022/01/13 01:14:42;;;;;;;58.80;27.90;;;3.60;99.90;;;;;;5087531;28;20485;-86
2022/01/13 01:17:09;;;;;;;54.37;27.87;;;3.70;99.90;;;;;;5078691;28;20521;-86
2022/01/13 01:19:37;;;;;;;51.00;25.83;;;3.70;99.90;;;;;;5078282;28;20454;-85
2022/01/13 01:22:33;;;;;;;55.60;26.07;;;3.70;99.90;;;;;;5066201;28;20491;-86
2022/01/13 01:25:30;;;;;;;49.53;24.70;;;3.70;99.90;;;;;;5073530;28;20497;-85
2022/01/13 01:27:59;;;;;;;52.40;26.73;;;3.70;99.90;;;;;;5077876;28;20439;-86
2022/01/13 01:30:32;;;;;;;49.47;24.80;;;3.60;99.90;;;;;;5077197;28;20495;-85
2022/01/13 01:32:59;;;;;;;52.47;27.70;;;3.70;99.90;;;;;;5077849;28;20546;-81
2022/01/13 01:35:28;;;;;;;54.87;28.00;;;3.70;99.90;;;;;;5077299;28;20506;-86
2022/01/13 01:37:55;;;;;;;50.10;26.50;;;3.60;99.90;;;;;;5079757;28;20446;-86
2022/01/13 01:40:22;;;;;;;52.33;26.80;;;3.60;99.90;;;;;;5079651;28;20481;-86
2022/01/13 01:42:49;;;;;;;56.60;27.40;;;3.60;99.90;;;;;;5080246;28;20457;-87
2022/01/13 01:45:19;;;;;;;48.80;24.87;;;3.70;99.90;;;;;;5079578;28;20533;-85
2022/01/13 01:47:49;;;;;;;54.40;27.03;;;3.70;99.90;;;;;;5080201;28;20628;-86
2022/01/13 01:50:19;;;;;;;51.20;27.53;;;3.70;99.90;;;;;;5082506;28;20429;-86
2022/01/13 01:52:47;;;;;;;56.10;27.40;;;3.70;99.90;;;;;;5092167;28;20546;-82
2022/01/13 01:55:15;;;;;;;52.00;24.83;;;3.70;99.90;;;;;;5088599;28;20445;-86
2022/01/13 01:57:43;;;;;;;63.37;26.77;;;3.80;99.90;;;;;;5082238;28;20546;-85
2022/01/13 02:00:14;;;;;;;58.33;28.93;;;3.80;99.90;;;;;;5081994;28;20458;-86
2022/01/13 02:02:43;;;;;;;58.17;27.83;;;3.70;99.90;;;;;;5083776;28;20475;-84
2022/01/13 02:05:10;;;;;;;55.73;28.30;;;3.60;99.90;;;;;;5075364;28;20514;-84
2022/01/13 02:07:38;;;;;;;61.83;29.17;;;3.70;99.90;;;;;;5091913;28;20481;-83
2022/01/13 02:10:07;;;;;;;54.87;26.70;;;3.80;99.90;;;;;;5090761;28;20450;-84
2022/01/13 02:12:38;;;;;;;57.93;28.77;;;3.70;99.90;;;;;;5089830;28;20451;-84
2022/01/13 02:17:59;;;;;;;53.93;27.10;;;3.80;99.90;;;;;;5074685;28;20459;-87
2022/01/13 02:20:42;;;;;;;63.53;29.20;;;3.70;99.90;;;;;;5090849;28;20449;-83
2022/01/13 02:23:09;;;;;;;57.80;29.20;;;3.60;99.90;;;;;;5091093;28;20439;-85
2022/01/13 02:25:36;;;;;;;62.17;30.10;;;3.60;99.90;;;;;;5091090;28;20511;-84
2022/01/13 02:28:04;;;;;;;54.03;27.53;;;3.70;99.90;;;;;;5092080;28;20534;-85
2022/01/13 02:30:30;;;;;;;58.43;27.87;;;3.80;99.90;;;;;;5091248;28;20433;-83
2022/01/13 02:32:57;;;;;;;51.30;26.97;;;3.70;99.90;;;;;;5091066;28;20502;-84
2022/01/13 02:35:33;;;;;;;59.40;29.73;;;3.70;99.90;;;;;;5091725;28;20504;-86
2022/01/13 02:38:01;;;;;;;50.13;26.23;;;3.70;99.90;;;;;;5092809;28;20502;-86
2022/01/13 02:40:28;;;;;;;52.70;25.73;;;3.60;99.90;;;;;;5091709;28;20451;-84
2022/01/13 02:42:55;;;;;;;58.13;28.30;;;3.70;99.90;;;;;;5091540;28;20513;-83
2022/01/13 02:45:26;;;;;;;60.87;30.40;;;3.70;99.90;;;;;;5088954;28;20451;-86
2022/01/13 02:50:40;;;;;;;55.20;27.60;;;3.70;99.90;;;;;;5081636;28;20447;-85
2022/01/13 02:53:09;;;;;;;55.10;27.13;;;3.70;99.90;;;;;;5081811;28;20439;-84
2022/01/13 02:55:35;;;;;;;46.70;25.73;;;3.60;99.90;;;;;;5090417;28;20453;-84
2022/01/13 02:58:02;;;;;;;55.30;27.80;;;3.60;99.90;;;;;;5092095;28;20474;-85
2022/01/13 03:00:29;;;;;;;59.70;27.97;;;3.50;99.90;;;;;;5092495;28;20586;-83
2022/01/13 03:02:56;;;;;;;56.40;26.73;;;3.50;99.90;;;;;;5086568;28;20518;-86
2022/01/13 03:05:23;;;;;;;52.53;27.07;;;3.60;99.90;;;;;;5084732;28;20518;-87
2022/01/13 03:07:52;;;;;;;53.60;26.37;;;3.60;99.90;;;;;;5083784;28;20474;-87
2022/01/13 03:10:20;;;;;;;59.00;28.37;;;3.70;99.90;;;;;;5083865;28;20977;-87
2022/01/13 03:12:47;;;;;;;53.50;31.10;;;3.60;99.90;;;;;;5083113;28;20458;-87
2022/01/13 03:15:14;;;;;;;52.13;27.50;;;3.60;99.90;;;;;;5082513;28;20457;-86
2022/01/13 03:17:41;;;;;;;55.33;29.70;;;3.80;99.90;;;;;;5083297;28;20475;-86
2022/01/13 03:20:09;;;;;;;54.50;28.20;;;3.80;99.90;;;;;;5080952;28;20815;-85
2022/01/13 03:22:35;;;;;;;53.23;26.57;;;3.70;99.90;;;;;;5080870;28;20487;-86
2022/01/13 03:25:03;;;;;;;50.93;29.57;;;3.70;99.90;;;;;;5080587;28;20443;-86
2022/01/13 03:27:35;;;;;;;65.00;30.63;;;3.70;99.90;;;;;;5077595;28;21067;-82
2022/01/13 03:30:05;;;;;;;61.63;29.60;;;3.70;99.90;;;;;;5080248;28;20932;-86
2022/01/13 03:32:32;;;;;;;65.90;31.47;;;3.70;99.90;;;;;;5081805;28;20443;-85
2022/01/13 03:34:59;;;;;;;66.03;29.40;;;3.70;99.90;;;;;;5080530;28;20444;-86
2022/01/13 03:37:27;;;;;;;60.97;27.90;;;3.60;99.90;;;;;;5081114;28;20470;-86
2022/01/13 03:39:53;;;;;;;345.83;134.50;;;3.70;99.90;;;;;;5079787;28;20509;-86
2022/01/13 03:42:20;;;;;;;88.40;48.13;;;3.60;99.90;;;;;;5080436;28;20556;-87
2022/01/13 03:44:49;;;;;;;70.73;32.50;;;3.60;99.90;;;;;;5079827;28;20481;-85
2022/01/13 03:47:16;;;;;;;61.93;29.07;;;3.70;99.90;;;;;;5079222;28;20467;-86
2022/01/13 03:49:44;;;;;;;65.67;33.10;;;3.70;99.90;;;;;;5081398;28;20438;-85
2022/01/13 03:52:53;;;;;;;59.43;29.70;;;3.70;99.90;;;;;;5081990;28;20519;-87
2022/01/13 03:55:58;;;;;;;68.13;33.57;;;3.70;99.90;;;;;;5081293;28;20443;-86
2022/01/13 03:59:18;;;;;;;65.00;31.40;;;3.60;99.90;;;;;;5082573;28;20447;-86
2022/01/13 04:02:06;;;;;;;64.60;29.70;;;3.70;99.90;;;;;;5078058;28;20483;-85
2022/01/13 04:04:35;;;;;;;62.13;32.17;;;3.70;99.90;;;;;;5090534;28;20462;-81
2022/01/13 04:07:12;;;;;;;65.77;31.37;;;3.70;99.90;;;;;;5091087;28;20490;-84
2022/01/13 04:10:12;;;;;;;65.30;32.00;;;3.80;99.90;;;;;;5079497;28;20445;-85
2022/01/13 04:12:40;;;;;;;67.53;32.83;;;3.80;99.90;;;;;;5053096;28;20444;-86
2022/01/13 04:15:11;;;;;;;68.47;32.40;;;3.60;99.90;;;;;;5079406;28;20470;-86
2022/01/13 04:17:40;;;;;;;65.50;30.93;;;3.60;99.90;;;;;;5063671;28;20475;-85
2022/01/13 04:20:09;;;;;;;65.70;31.20;;;3.70;99.90;;;;;;5074625;28;20456;-83
2022/01/13 04:22:36;;;;;;;76.30;33.60;;;3.70;99.90;;;;;;5071100;28;20479;-86
2022/01/13 04:25:06;;;;;;;65.57;29.93;;;3.50;99.90;;;;;;5073563;28;20458;-86
2022/01/13 04:27:37;;;;;;;70.20;33.47;;;3.50;99.90;;;;;;5079010;28;20561;-86
2022/01/13 04:30:32;;;;;;;71.10;31.80;;;3.40;99.90;;;;;;5081487;28;20847;-85
2022/01/13 04:33:01;;;;;;;68.67;34.07;;;3.40;99.90;;;;;;5067897;28;20439;-85
2022/01/13 04:35:28;;;;;;;71.57;33.30;;;3.50;99.90;;;;;;5062743;28;20443;-87
2022/01/13 04:37:54;;;;;;;70.70;32.50;;;3.50;99.90;;;;;;5080503;28;20443;-87
2022/01/13 04:40:21;;;;;;;59.87;29.17;;;3.40;99.90;;;;;;5081066;28;20449;-85
2022/01/13 04:42:53;;;;;;;63.53;33.80;;;3.50;99.90;;;;;;5081876;28;20498;-87
2022/01/13 04:45:21;;;;;;;60.33;29.07;;;3.50;99.90;;;;;;5080713;28;20456;-86
2022/01/13 04:47:48;;;;;;;72.53;35.00;;;3.50;99.90;;;;;;5080401;28;20479;-86
2022/01/13 04:50:16;;;;;;;68.53;32.47;;;3.60;99.90;;;;;;5081100;28;20794;-86
2022/01/13 04:52:43;;;;;;;64.07;31.97;;;3.60;99.90;;;;;;5080748;28;20536;-87
2022/01/13 04:55:13;;;;;;;68.50;31.80;;;3.60;99.90;;;;;;5082333;28;20822;-87
2022/01/13 04:57:40;;;;;;;58.83;30.53;;;3.60;99.90;;;;;;5078678;28;21051;-83
2022/01/13 05:00:09;;;;;;;58.33;32.03;;;3.60;99.90;;;;;;5081233;28;20518;-87
2022/01/13 05:02:36;;;;;;;72.37;33.40;;;3.70;99.90;;;;;;5080302;28;20499;-85
2022/01/13 05:05:04;;;;;;;60.50;33.00;;;3.60;99.90;;;;;;5080296;28;20442;-85
2022/01/13 05:07:32;;;;;;;65.97;33.17;;;3.60;99.90;;;;;;5078228;28;20475;-86
2022/01/13 05:09:59;;;;;;;63.93;33.60;;;3.60;99.90;;;;;;5076711;28;20439;-86
2022/01/13 05:12:31;;;;;;;53.60;29.97;;;3.60;99.90;;;;;;5077266;28;20815;-86
2022/01/13 05:15:02;;;;;;;61.70;31.60;;;3.60;99.90;;;;;;5076449;28;20538;-87
2022/01/13 05:20:18;;;;;;;67.60;34.53;;;3.60;99.90;;;;;;5071162;28;20431;-85
2022/01/13 05:22:47;;;;;;;63.33;32.33;;;3.50;99.90;;;;;;5079016;28;20524;-86
2022/01/13 05:25:14;;;;;;;58.77;30.27;;;3.40;99.90;;;;;;5077454;28;20455;-86
2022/01/13 05:27:41;;;;;;;58.87;28.30;;;3.40;99.90;;;;;;5079393;28;20471;-87
2022/01/13 05:30:10;;;;;;;60.37;32.30;;;3.50;99.90;;;;;;5080497;28;20530;-87
2022/01/13 05:32:37;;;;;;;67.43;32.40;;;3.50;99.90;;;;;;5082946;28;20984;-86
2022/01/13 05:35:05;;;;;;;58.70;30.70;;;3.50;99.90;;;;;;5080984;28;20455;-83
2022/01/13 05:37:32;;;;;;;66.23;33.73;;;3.50;99.90;;;;;;5081057;28;20477;-86
2022/01/13 05:40:00;;;;;;;62.40;32.97;;;3.50;99.90;;;;;;5083984;28;20443;-87
2022/01/13 05:42:27;;;;;;;72.60;34.80;;;3.50;99.90;;;;;;5082876;28;20485;-86
2022/01/13 05:44:55;;;;;;;56.20;30.83;;;3.60;99.90;;;;;;5083749;28;20489;-87
2022/01/13 05:47:22;;;;;;;63.57;33.43;;;3.60;99.90;;;;;;5082243;28;20471;-88
2022/01/13 05:49:49;;;;;;;65.20;30.80;;;3.50;99.90;;;;;;5081916;28;20479;-87
2022/01/13 05:52:16;;;;;;;62.33;32.27;;;3.60;99.90;;;;;;5083295;28;20522;-85
2022/01/13 05:54:43;;;;;;;63.03;30.73;;;3.60;99.90;;;;;;5073158;28;20553;-86
2022/01/13 05:57:11;;;;;;;66.43;33.90;;;3.70;99.90;;;;;;5065952;28;20455;-87
2022/01/13 05:59:38;;;;;;;61.40;32.80;;;3.60;99.90;;;;;;5076783;28;20530;-87
2022/01/13 06:02:06;;;;;;;59.33;32.70;;;3.70;99.90;;;;;;5083883;28;20581;-85
2022/01/13 06:04:33;;;;;;;64.37;34.37;;;3.70;99.90;;;;;;5080275;28;20502;-86
2022/01/13 06:07:00;;;;;;;67.80;35.03;;;3.50;99.90;;;;;;5097036;22;20521;-82
2022/01/13 06:09:26;;;;;;;66.27;34.57;;;3.60;99.90;;;;;;4996165;28;20463;-81
2022/01/13 06:11:57;;;;;;;60.80;31.90;;;3.60;99.90;;;;;;4999164;28;20963;-81
2022/01/13 06:14:25;;;;;;;66.93;32.80;;;3.60;99.90;;;;;;4997407;28;20487;-82
2022/01/13 06:16:52;;;;;;;54.10;32.57;;;3.70;99.90;;;;;;4999014;28;20465;-81
2022/01/13 06:19:19;;;;;;;60.77;32.80;;;3.60;99.90;;;;;;4999721;28;20447;-80
2022/01/13 06:21:46;;;;;;;65.30;36.20;;;3.60;99.90;;;;;;4996660;28;20462;-80
2022/01/13 06:24:13;;;;;;;66.00;33.57;;;3.60;99.90;;;;;;5005117;28;20518;-82
2022/01/13 06:26:40;;;;;;;65.57;32.47;;;3.60;99.90;;;;;;5003221;28;20474;-81
2022/01/13 06:29:07;;;;;;;64.00;34.03;;;3.60;99.90;;;;;;5003187;28;20952;-81
2022/01/13 06:31:35;;;;;;;61.47;32.87;;;3.60;99.90;;;;;;5005029;28;20446;-81
2022/01/13 06:34:02;;;;;;;61.10;32.93;;;3.50;99.90;;;;;;5006269;28;20465;-81
2022/01/13 06:36:31;;;;;;;64.77;33.90;;;3.50;99.90;;;;;;5006539;28;20530;-80
2022/01/13 06:38:58;;;;;;;61.33;34.30;;;3.40;99.90;;;;;;5005886;28;20941;-81
2022/01/13 06:41:25;;;;;;;62.90;31.67;;;3.30;99.90;;;;;;5004298;28;20518;-79
2022/01/13 06:43:52;;;;;;;61.63;33.10;;;3.40;99.90;;;;;;5003188;28;20493;-83
2022/01/13 06:46:18;;;;;;;78.10;37.73;;;3.40;99.90;;;;;;5002024;28;20542;-83
2022/01/13 06:48:47;;;;;;;71.00;35.07;;;3.20;99.90;;;;;;4987173;28;20486;-84
2022/01/13 06:51:14;;;;;;;69.17;34.23;;;3.20;99.90;;;;;;4990459;28;20455;-83
2022/01/13 06:53:40;;;;;;;61.63;32.77;;;3.10;99.90;;;;;;5004139;28;20431;-84
2022/01/13 06:56:08;;;;;;;67.63;34.67;;;3.20;99.90;;;;;;5005750;28;20882;-84
2022/01/13 06:58:35;;;;;;;60.60;31.90;;;3.20;99.90;;;;;;5006659;28;20533;-84
2022/01/13 07:01:01;;;;;;;59.90;32.40;;;3.20;99.90;;;;;;5007477;28;20549;-85
2022/01/13 07:03:28;;;;;;;65.00;34.93;;;3.30;99.90;;;;;;5007093;28;20499;-83
2022/01/13 07:05:56;;;;;;;66.40;32.33;;;3.30;99.90;;;;;;5007200;28;20523;-83
2022/01/13 07:08:23;;;;;;;68.67;32.50;;;3.30;99.90;;;;;;5007379;28;20467;-84
2022/01/13 07:10:50;;;;;;;70.00;33.87;;;3.40;99.90;;;;;;5008334;28;20561;-85
2022/01/13 07:13:17;;;;;;;70.63;33.67;;;3.30;99.90;;;;;;5005728;28;20482;-84
2022/01/13 07:15:46;;;;;;;61.27;30.73;;;3.30;99.90;;;;;;5008403;28;20450;-84
2022/01/13 07:18:13;;;;;;;68.57;31.37;;;3.40;99.90;;;;;;5012443;28;20459;-85
2022/01/13 07:20:43;;;;;;;70.23;34.80;;;3.40;99.90;;;;;;5003618;28;20474;-82
2022/01/13 07:23:11;;;;;;;66.43;34.90;;;3.30;99.90;;;;;;4999880;28;20513;-82
2022/01/13 07:25:38;;;;;;;70.53;31.10;;;3.20;99.90;;;;;;4999507;28;20485;-83
2022/01/13 07:28:05;;;;;;;74.20;35.03;;;3.20;99.90;;;;;;4999926;28;20483;-82
2022/01/13 07:30:32;;;;;;;60.50;31.73;;;3.20;99.90;;;;;;4999550;28;20455;-82
2022/01/13 07:32:59;;;;;;;56.10;31.53;;;3.20;99.90;;;;;;5000177;28;20447;-82
2022/01/13 07:35:27;;;;;;;65.80;32.60;;;3.40;99.90;;;;;;5000378;28;20527;-83
2022/01/13 07:37:54;;;;;;;71.97;34.00;;;3.50;99.90;;;;;;4988475;28;20796;-84
2022/01/13 07:40:22;;;;;;;67.10;36.33;;;3.30;99.90;;;;;;5000901;28;20457;-84
2022/01/13 07:42:49;;;;;;;59.93;31.30;;;3.40;99.90;;;;;;5000737;28;20482;-83
2022/01/13 07:45:18;;;;;;;70.33;33.33;;;3.40;99.90;;;;;;5001841;28;20471;-82
2022/01/13 07:47:46;;;;;;;65.73;31.53;;;3.50;99.90;;;;;;5001401;28;20471;-83
2022/01/13 07:50:15;;;;;;;62.50;31.00;;;3.40;99.90;;;;;;5001567;28;20460;-83
2022/01/13 07:52:41;;;;;;;59.43;30.20;;;3.40;99.90;;;;;;5002408;28;20451;-83
2022/01/13 07:55:10;;;;;;;78.17;33.67;;;3.50;99.90;;;;;;5013147;28;20445;-84
2022/01/13 07:57:38;;;;;;;69.27;33.93;;;3.30;99.90;;;;;;5014293;28;20567;-84
2022/01/13 08:00:07;;;;;;;58.97;33.07;;;3.20;99.90;;;;;;5013319;28;20450;-84
2022/01/13 08:02:34;;;;;;;66.43;34.37;;;3.40;99.90;;;;;;5009806;28;20518;-84
2022/01/13 08:05:01;;;;;;;62.40;32.00;;;3.40;99.90;;;;;;5007975;28;20497;-84
2022/01/13 08:07:28;;;;;;;56.90;30.10;;;3.40;99.90;;;;;;5004214;28;20570;-84
2022/01/13 08:09:55;;;;;;;62.60;30.47;;;3.30;99.90;;;;;;4990331;28;20448;-83
2022/01/13 08:12:22;;;;;;;67.63;32.83;;;3.40;99.90;;;;;;5006869;28;20835;-84
2022/01/13 08:14:51;;;;;;;51.37;27.17;;;3.40;99.90;;;;;;5006113;28;20532;-83
2022/01/13 08:19:45;;;;;;;78.00;35.33;;;3.50;99.90;;;;;;5001474;28;20541;-84
2022/01/13 08:20:06;;;;;;;66.10;31.97;;;3.30;99.90;;;;;;5012455;28;20453;-85
2022/01/13 08:22:33;;;;;;;56.87;29.53;;;3.20;99.90;;;;;;4997516;28;21187;-84
2022/01/13 08:25:00;;;;;;;63.70;31.37;;;3.30;99.90;;;;;;4993197;28;20472;-83
2022/01/13 08:27:27;;;;;;;65.63;30.47;;;3.10;99.90;;;;;;4999785;28;20462;-84
2022/01/13 08:29:56;;;;;;;67.83;34.47;;;3.20;99.90;;;;;;4993378;28;20514;-82
2022/01/13 08:32:22;;;;;;;69.70;32.93;;;3.30;99.90;;;;;;4999047;28;20446;-80
2022/01/13 08:34:49;;;;;;;58.50;29.07;;;3.40;99.90;;;;;;4999322;28;20494;-81
2022/01/13 08:37:16;;;;;;;59.27;31.20;;;3.40;99.90;;;;;;4986943;28;20459;-83
2022/01/13 08:39:45;;;;;;;57.83;28.17;;;3.50;99.90;;;;;;4989320;28;20502;-82
2022/01/13 08:42:12;;;;;;;58.67;30.63;;;3.60;99.90;;;;;;4986815;28;20466;-84
2022/01/13 08:44:43;;;;;;;48.97;28.27;;;3.60;99.90;;;;;;4988689;28;20590;-82
2022/01/13 08:47:11;;;;;;;58.50;27.30;;;3.60;99.90;;;;;;4988921;28;20518;-84
2022/01/13 08:49:38;;;;;;;55.70;28.23;;;3.70;99.90;;;;;;4982127;28;20818;-83
2022/01/13 08:52:06;;;;;;;52.10;30.20;;;3.80;99.90;;;;;;4998688;28;20522;-84
2022/01/13 08:54:33;;;;;;;57.53;32.10;;;3.80;99.90;;;;;;4994236;28;20487;-84
2022/01/13 08:57:01;;;;;;;53.10;27.63;;;3.50;99.90;;;;;;4992310;28;20480;-84
2022/01/13 08:59:28;;;;;;;52.47;27.17;;;3.60;99.90;;;;;;5002139;28;20522;-83
2022/01/13 09:01:55;;;;;;;57.93;28.77;;;3.70;99.90;;;;;;5002036;28;20504;-83
2022/01/13 09:04:24;;;;;;;54.53;27.93;;;3.90;99.90;;;;;;4989390;28;20490;-83
2022/01/13 09:06:51;;;;;;;55.97;29.77;;;3.90;99.90;;;;;;4986648;28;21048;-83
2022/01/13 09:09:17;;;;;;;55.73;27.80;;;3.90;99.90;;;;;;5003624;28;20469;-84
2022/01/13 09:11:45;;;;;;;53.93;27.90;;;4.00;99.90;;;;;;4998224;28;20477;-84
2022/01/13 09:14:12;;;;;;;49.80;27.97;;;4.00;99.90;;;;;;5004227;28;20450;-84
2022/01/13 09:16:46;;;;;;;53.13;29.43;;;4.10;99.90;;;;;;5007262;28;20494;-83
2022/01/13 09:19:19;;;;;;;53.23;28.40;;;4.20;99.90;;;;;;5004532;28;20544;-82
2022/01/13 09:21:52;;;;;;;49.17;25.47;;;4.30;99.90;;;;;;5005349;28;20453;-81
2022/01/13 09:24:26;;;;;;;53.10;29.60;;;4.20;99.90;;;;;;5005502;28;21008;-83
2022/01/13 09:26:53;;;;;;;52.63;30.23;;;4.30;99.90;;;;;;5005506;28;20506;-83
2022/01/13 09:29:20;;;;;;;63.00;29.80;;;4.20;99.90;;;;;;5005314;28;20454;-83
2022/01/13 09:31:47;;;;;;;59.47;31.87;;;4.40;99.90;;;;;;4997673;28;20452;-83
2022/01/13 09:34:14;;;;;;;60.70;32.50;;;4.40;99.90;;;;;;5001537;28;20805;-83
2022/01/13 09:36:52;;;;;;;55.90;29.00;;;4.40;99.90;;;;;;5002570;28;20514;-82
2022/01/13 09:39:18;;;;;;;64.43;32.33;;;4.40;99.90;;;;;;4993630;28;20483;-82
2022/01/13 09:41:47;;;;;;;66.20;33.50;;;4.50;99.90;;;;;;4986000;28;20530;-81
2022/01/13 09:44:14;;;;;;;54.60;28.40;;;4.60;99.90;;;;;;4983065;28;20491;-81
2022/01/13 09:46:41;;;;;;;62.43;31.50;;;4.70;99.90;;;;;;4998751;28;20469;-82
2022/01/13 09:49:15;;;;;;;52.53;30.33;;;4.80;99.90;;;;;;4997592;28;20443;-81
2022/01/13 09:51:48;;;;;;;63.17;33.53;;;4.70;99.90;;;;;;5003494;28;20494;-82
2022/01/13 09:54:16;;;;;;;73.93;36.33;;;4.80;99.90;;;;;;4995664;28;20458;-82
2022/01/13 09:56:44;;;;;;;67.50;33.67;;;4.70;99.90;;;;;;5003930;28;20540;-81
2022/01/13 09:59:11;;;;;;;64.40;33.63;;;4.70;99.90;;;;;;5000544;28;20448;-80
2022/01/13 10:01:38;;;;;;;55.50;29.37;;;4.70;99.90;;;;;;4993488;28;20547;-82
2022/01/13 10:04:05;;;;;;;61.13;30.60;;;4.80;99.90;;;;;;4997465;28;20851;-80
2022/01/13 10:06:42;;;;;;;60.57;29.50;;;4.80;99.90;;;;;;4999628;28;20450;-82
2022/01/13 10:09:10;;;;;;;61.20;31.17;;;4.90;99.90;;;;;;5013465;28;20445;-82
2022/01/13 10:11:42;;;;;;;52.97;28.90;;;5.00;99.90;;;;;;5005750;28;20443;-81
2022/01/13 10:14:15;;;;;;;61.27;30.40;;;5.10;99.90;;;;;;4995180;28;20553;-83
2022/01/13 10:16:47;;;;;;;59.83;31.30;;;5.20;99.90;;;;;;4989742;28;20487;-82
2022/01/13 10:19:28;;;;;;;55.70;30.60;;;5.40;99.90;;;;;;5000478;28;20529;-83
2022/01/13 10:21:56;;;;;;;60.77;31.20;;;5.50;99.90;;;;;;4996685;28;20933;-83
2022/01/13 10:24:25;;;;;;;63.67;31.30;;;5.50;99.90;;;;;;4998123;28;20485;-83
2022/01/13 10:27:01;;;;;;;56.80;31.37;;;5.70;99.90;;;;;;5006230;28;20473;-82
2022/01/13 10:29:40;;;;;;;54.83;30.10;;;5.80;99.90;;;;;;4989081;28;20478;-83
2022/01/13 10:32:08;;;;;;;51.03;28.23;;;5.90;99.90;;;;;;4968084;28;20465;-84
2022/01/13 10:34:37;;;;;;;55.13;30.20;;;5.90;99.90;;;;;;4976482;28;20463;-84
2022/01/13 10:37:13;;;;;;;54.57;30.20;;;6.10;99.90;;;;;;4984131;28;20468;-83
2022/01/13 10:40:01;;;;;;;53.60;31.00;;;6.10;99.90;;;;;;4977997;28;20452;-82
2022/01/13 10:43:09;;;;;;;62.83;34.30;;;6.20;99.90;;;;;;4977279;28;20451;-83
2022/01/13 10:45:45;;;;;;;58.17;31.63;;;6.20;99.90;;;;;;4982086;28;20460;-84
2022/01/13 10:48:15;;;;;;;57.97;31.90;;;6.30;99.90;;;;;;4962533;28;20560;-83
2022/01/13 10:50:46;;;;;;;56.97;29.60;;;6.00;99.90;;;;;;4978274;28;20459;-82
2022/01/13 10:53:14;;;;;;;59.70;29.03;;;6.00;99.90;;;;;;4979051;28;20469;-81
2022/01/13 10:55:45;;;;;;;55.83;29.70;;;6.10;99.90;;;;;;4973169;28;20454;-82
2022/01/13 10:58:16;;;;;;;46.43;28.57;;;6.10;99.90;;;;;;4985030;28;20544;-84
2022/01/13 11:00:43;;;;;;;52.70;27.57;;;6.20;99.90;;;;;;4985848;28;20944;-82
2022/01/13 11:03:13;;;;;;;58.83;32.97;;;6.10;99.90;;;;;;4974237;28;21107;-82
2022/01/13 11:05:43;;;;;;;51.90;28.10;;;5.80;99.90;;;;;;4967413;29;20445;-83
2022/01/13 11:08:10;;;;;;;57.13;29.37;;;5.80;99.90;;;;;;4972492;28;20514;-83
2022/01/13 11:10:40;;;;;;;58.80;31.63;;;6.00;99.90;;;;;;4985722;28;20449;-83
2022/01/13 11:13:08;;;;;;;60.10;31.20;;;6.20;99.90;;;;;;4993636;28;20526;-82
2022/01/13 11:15:44;;;;;;;53.67;28.53;;;6.60;99.90;;;;;;4975918;28;20457;-82
2022/01/13 11:18:11;;;;;;;52.63;29.30;;;6.90;99.90;;;;;;4963477;28;20468;-83
2022/01/13 11:20:39;;;;;;;52.23;29.63;;;7.20;99.90;;;;;;4969559;28;20481;-83
2022/01/13 11:23:06;;;;;;;51.13;30.10;;;7.50;99.90;;;;;;4993249;28;20453;-85
2022/01/13 11:25:37;;;;;;;47.57;29.87;;;7.40;99.90;;;;;;4976924;28;20550;-82
2022/01/13 11:28:08;;;;;;;51.17;29.10;;;7.70;99.90;;;;;;4980420;28;20505;-78
2022/01/13 11:30:37;;;;;;;51.40;31.27;;;8.00;99.90;;;;;;4970413;28;20463;-80
2022/01/13 11:33:04;;;;;;;51.53;29.47;;;8.20;99.90;;;;;;4974004;28;20820;-82
2022/01/13 11:35:35;;;;;;;49.33;28.33;;;8.20;99.90;;;;;;4973454;28;20489;-82
2022/01/13 11:38:04;;;;;;;54.70;30.53;;;8.20;99.90;;;;;;4964536;28;20475;-83
2022/01/13 11:40:36;;;;;;;45.77;27.50;;;8.50;99.90;;;;;;4970890;28;20463;-83
2022/01/13 11:43:05;;;;;;;48.70;27.43;;;8.80;99.90;;;;;;4968241;28;20933;-82
2022/01/13 11:45:41;;;;;;;45.17;27.50;;;9.70;99.90;;;;;;4979614;28;20546;-81
2022/01/13 11:48:21;;;;;;;45.07;29.33;;;10.60;99.90;;;;;;4977712;28;20865;-82
2022/01/13 11:50:52;;;;;;;42.13;25.80;;;11.70;99.90;;;;;;4962215;28;20456;-79
2022/01/13 11:53:28;;;;;;;42.07;26.50;;;11.20;99.90;;;;;;4971267;28;20554;-81
2022/01/13 11:55:59;;;;;;;47.93;29.93;;;11.40;99.90;;;;;;4973467;28;20457;-81
2022/01/13 11:58:31;;;;;;;45.27;28.67;;;11.10;99.90;;;;;;4967367;28;20471;-81
2022/01/13 12:01:11;;;;;;;46.20;26.93;;;10.50;99.90;;;;;;4965426;28;20539;-79
2022/01/13 12:03:42;;;;;;;45.40;26.90;;;10.40;99.90;;;;;;4973363;28;20480;-81
2022/01/13 12:06:09;;;;;;;42.23;25.33;;;10.70;99.90;;;;;;4973329;28;20462;-83
2022/01/13 12:08:44;;;;;;;35.80;23.90;;;11.20;99.90;;;;;;4980116;28;21187;-80
2022/01/13 12:11:31;;;;;;;37.57;25.30;;;13.10;99.90;;;;;;4972329;28;20548;-81
2022/01/13 12:13:58;;;;;;;34.13;23.00;;;13.50;99.90;;;;;;4967259;28;20461;-83
2022/01/13 12:16:52;;;;;;;32.73;22.70;;;14.80;99.90;;;;;;4965584;28;20455;-82
2022/01/13 12:19:27;;;;;;;39.07;25.40;;;15.90;99.90;;;;;;4966935;28;20485;-82
2022/01/13 12:22:02;;;;;;;34.90;23.00;;;15.90;99.70;;;;;;4974383;28;20443;-81
2022/01/13 12:24:53;;;;;;;36.37;22.40;;;15.30;99.90;;;;;;4976923;28;20492;-80
2022/01/13 12:27:22;;;;;;;36.87;22.57;;;15.00;99.90;;;;;;4976678;28;20478;-81
2022/01/13 12:29:52;;;;;;;30.00;21.00;;;13.70;99.90;;;;;;4976717;28;20455;-82
2022/01/13 12:35:14;;;;;;;27.70;20.17;;;13.10;99.90;;;;;;5135066;27;20577;-81
2022/01/13 12:37:42;;;;;;;30.27;18.83;;;12.40;99.90;;;;;;5135573;27;20463;-81
2022/01/13 12:40:16;;;;;;;31.73;19.70;;;12.10;99.90;;;;;;5135041;27;20477;-80
2022/01/13 12:42:50;;;;;;;35.55;22.75;;;11.90;99.90;;;;;;5127540;28;20451;-81
2022/01/13 12:45:32;;;;;;;36.53;20.27;;;11.00;99.90;;;;;;5114776;28;20212;-81
2022/01/13 12:48:03;;;;;;;35.10;20.87;;;10.40;99.90;;;;;;5119066;28;20466;-82
2022/01/13 12:50:34;;;;;;;31.20;18.50;;;9.60;99.90;;;;;;5134965;28;20451;-83
2022/01/13 12:53:13;;;;;;;30.47;18.90;;;9.60;99.90;;;;;;5125660;28;20897;-81
2022/01/13 12:55:42;;;;;;;34.10;18.20;;;9.20;99.90;;;;;;5134826;27;20425;-81
2022/01/13 12:58:10;;;;;;;30.97;19.00;;;9.40;99.90;;;;;;5137572;27;20492;-79
2022/01/13 13:00:37;;;;;;;32.60;21.27;;;10.20;99.90;;;;;;5121970;28;20476;-84
2022/01/13 13:03:07;;;;;;;36.60;21.33;;;10.20;99.90;;;;;;5117554;28;20488;-80
2022/01/13 13:05:39;;;;;;;31.80;19.83;;;10.00;99.90;;;;;;5119557;28;20457;-80